หน้าหลัก
METAR-TAF:

METAR-TAF

ท่าอากาศยาน :

Las Cruces International Airport

Las Cruces, นิวเม็กซิโก, สหรัฐอเมริกา

ละติจูด: 32-17-22N, ลองจิจูด: 106-55-19W, ความสูง: 1358 ม.

การสังเกตสภาพอากาศปัจจุบัน

รายงานได้ทำขึ้นเมื่อ 33 นาทีที่แล้ว ณ เวลา 14:15 UTC
ลม 14 นอตจากตะวันตกโดยมีลมกระโชกได้ถึง20 นอต
อุณหภูมิ 27°C
ความชื้น 16%
ความกดอากาศ 1012 hPa
ทัศนวิสัย: 16.1 กม.
ท้องฟ้าแจ่มใส

METAR: KLRU 181415Z AUTO 26014G20KT 10SM CLR 27/M01 A2988 RMK AO2 T02711012

เวลา: 08:48 (14:48 UTC)

การพยากรณ์

รายงานได้ทำขึ้นเมื่อ 3 ชั่วโมงและ 21 นาทีที่แล้ว ณ เวลา 11:27 UTC
การพยากรณ์มีผลตั้งแต่วันที่ 18 ณ เวลา 12 UTC จนถึงวันที่ 19 ณ เวลา 12 UTC
ลม 12 นอตจากตะวันตก
ทัศนวิสัย: 10 กม.
ท้องฟ้าแจ่มใส
จาก 18 ณ เวลา 1700 UTC
ลม 12 นอตจากตะวันตก/ตะวันตกเฉียงใต้โดยมีลมกระโชกได้ถึง20 นอต
ทัศนวิสัย: 10 กม.
ท้องฟ้าแจ่มใส
จาก 19 ณ เวลา 0100 UTC
ลม 8 นอตจากตะวันตก
ทัศนวิสัย: 10 กม.
ท้องฟ้าแจ่มใส

TAF: KLRU 181127Z 1812/1912 26012KT P6SM SKC FM181700 25012G20KT P6SM SKC FM190100 27008KT P6SM SKC

สังเกตการณ์สภาพอากาศและพยากรณ์อากาศของสนามบินมากกว่า 4000 แห่ง (รายงาน METAR และ TAF).

สถานีที่ดูได้จะแสดงไว้ด้วยจุดสีเหลืองและสีแดงบนแผนที่.

เลื่อนเมาส์ไปเหนือจุดเพื่อดูชื่อสถานี.

แล้วคลิกเพื่อดูสังเกตการณ์และการพยากรณ์สภาพอากาศ.

ในการเปลี่ยนแผนที่: คลิกที่ปุ่มสีเขียวที่มีกากบาทสีดำเพื่อซูมเข้า; ที่ปุ่มสีเขียวที่มีขีดเพื่อซูมออก; หรือที่ลูกศรสีเขียวเพื่อไปยังแผนที่ที่อยู่ติดกัน.


METAR-TAF: